createdAt,value
2022-12-12T17:13:50.978Z,26.80
2022-12-12T17:16:21.405Z,26.27
2022-12-12T17:18:50.637Z,25.80
2022-12-12T17:21:17.143Z,26.80
2022-12-12T17:23:43.532Z,26.07
2022-12-12T17:26:09.983Z,28.10
2022-12-12T17:28:36.406Z,27.40
2022-12-12T17:31:06.929Z,28.50
2022-12-12T17:33:33.377Z,27.17
2022-12-12T17:36:06.343Z,25.60
2022-12-12T17:38:33.393Z,26.93
2022-12-12T17:41:04.093Z,25.27
2022-12-12T17:43:30.573Z,30.50
2022-12-12T17:46:05.673Z,28.93
2022-12-12T17:48:34.261Z,28.27
2022-12-12T17:51:06.092Z,25.80
2022-12-12T17:53:40.852Z,25.90
2022-12-12T17:56:10.092Z,23.50
2022-12-12T17:58:38.357Z,27.67
2022-12-12T18:01:29.242Z,23.93
2022-12-12T18:03:57.566Z,24.73
2022-12-12T18:06:24.941Z,26.67
2022-12-12T18:08:53.095Z,26.77
2022-12-12T18:11:26.829Z,22.53
2022-12-12T18:13:57.592Z,25.23
2022-12-12T18:16:24.959Z,24.43
2022-12-12T18:18:52.094Z,24.13
2022-12-12T18:24:08.748Z,23.93
2022-12-12T18:26:35.365Z,23.57
2022-12-12T18:29:04.969Z,26.60
2022-12-12T18:31:32.404Z,35.73
2022-12-12T18:33:59.253Z,28.07
2022-12-12T18:36:27.793Z,42.10
2022-12-12T18:38:59.601Z,28.13
2022-12-12T18:41:38.851Z,25.30
2022-12-12T18:44:07.290Z,22.87
2022-12-12T18:46:40.533Z,25.70
2022-12-12T18:49:09.071Z,27.50
2022-12-12T18:51:36.332Z,24.17
2022-12-12T18:54:09.424Z,25.97
2022-12-12T18:56:37.669Z,28.87
2022-12-12T18:59:04.133Z,27.10
2022-12-12T19:01:34.247Z,28.57
2022-12-12T19:04:09.006Z,33.07
2022-12-12T19:06:37.999Z,25.77
2022-12-12T19:09:16.838Z,27.13
2022-12-12T19:11:44.221Z,25.30
2022-12-12T19:14:12.656Z,27.63
2022-12-12T19:16:40.150Z,30.33
2022-12-12T19:19:09.246Z,28.93
2022-12-12T19:21:49.560Z,31.43
2022-12-12T19:24:15.970Z,32.87
2022-12-12T19:26:44.272Z,30.70
2022-12-12T19:29:18.179Z,35.40
2022-12-12T19:31:45.177Z,50.77
2022-12-12T19:34:13.041Z,56.47
2022-12-12T19:36:40.414Z,56.53
2022-12-12T19:39:08.100Z,38.17
2022-12-12T19:41:35.568Z,36.00
2022-12-12T19:44:04.272Z,31.10
2022-12-12T19:46:32.326Z,31.10
2022-12-12T19:49:01.185Z,27.87
2022-12-12T19:51:29.393Z,30.40
2022-12-12T19:53:58.321Z,33.00
2022-12-12T19:56:34.002Z,31.57
2022-12-12T19:59:01.623Z,35.90
2022-12-12T20:01:30.994Z,31.93
2022-12-12T20:04:01.596Z,32.70
2022-12-12T20:06:28.885Z,36.73
2022-12-12T20:08:58.565Z,42.67
2022-12-12T20:11:25.033Z,30.80
2022-12-12T20:13:56.512Z,27.17
2022-12-12T20:16:27.614Z,32.37
2022-12-12T20:18:54.965Z,31.03
2022-12-12T20:21:59.346Z,34.00
2022-12-12T20:24:11.996Z,29.53
2022-12-12T20:26:40.198Z,26.73
2022-12-12T20:29:07.947Z,29.47
2022-12-12T20:31:37.195Z,31.93
2022-12-12T20:34:03.943Z,27.57
2022-12-12T20:36:32.628Z,28.60
2022-12-12T20:39:04.192Z,29.10
2022-12-12T20:41:37.372Z,29.63
2022-12-12T20:44:05.976Z,29.13
2022-12-12T20:46:35.432Z,26.93
2022-12-12T20:49:04.054Z,27.23
2022-12-12T20:51:54.826Z,23.87
2022-12-12T20:54:19.964Z,29.03
2022-12-12T20:56:46.722Z,28.67
2022-12-12T20:59:14.212Z,34.53
2022-12-12T21:01:40.663Z,27.63
2022-12-12T21:04:10.766Z,32.83
2022-12-12T21:06:39.694Z,26.93
2022-12-12T21:09:08.507Z,26.83
2022-12-12T21:11:35.997Z,23.73
2022-12-12T21:14:02.992Z,26.80
2022-12-12T21:16:33.404Z,25.23
2022-12-12T21:19:02.263Z,22.03
2022-12-12T21:21:29.660Z,26.03
2022-12-12T21:23:57.039Z,28.67
2022-12-12T21:26:28.891Z,29.47
2022-12-12T21:28:57.605Z,24.17
2022-12-12T21:31:26.986Z,24.77
2022-12-12T21:33:54.332Z,23.27
2022-12-12T21:36:22.703Z,27.70
2022-12-12T21:38:50.301Z,28.23
2022-12-12T21:41:21.602Z,27.67
2022-12-12T21:43:49.543Z,27.73
2022-12-12T21:46:19.288Z,27.93
2022-12-12T21:48:46.265Z,32.77
2022-12-12T21:51:16.879Z,26.23
2022-12-12T21:53:43.633Z,27.73
2022-12-12T21:56:17.592Z,23.97
2022-12-12T21:58:46.194Z,24.53
2022-12-12T22:01:19.529Z,21.97
2022-12-12T22:03:48.461Z,21.90
2022-12-12T22:06:17.934Z,20.27
2022-12-12T22:08:44.874Z,21.13
2022-12-12T22:11:11.296Z,24.13
2022-12-12T22:13:40.243Z,19.80
2022-12-12T22:16:10.813Z,21.27
2022-12-12T22:18:37.197Z,21.87
2022-12-12T22:21:05.339Z,24.40
2022-12-12T22:23:32.249Z,22.20
2022-12-12T22:25:58.576Z,26.27
2022-12-12T22:28:25.151Z,25.63
2022-12-12T22:30:51.531Z,21.53
2022-12-12T22:33:17.855Z,26.23
2022-12-12T22:35:44.388Z,22.13
2022-12-12T22:38:10.769Z,21.60
2022-12-12T22:40:37.137Z,25.03
2022-12-12T22:43:03.621Z,23.20
2022-12-12T22:45:29.991Z,21.27
2022-12-12T22:47:56.605Z,22.97
2022-12-12T22:50:22.947Z,21.40
2022-12-12T22:52:49.316Z,24.33
2022-12-12T22:55:16.306Z,21.07
2022-12-12T22:57:45.306Z,27.13
2022-12-12T23:00:12.379Z,26.87
2022-12-12T23:02:38.790Z,26.13
2022-12-12T23:05:05.868Z,23.40
2022-12-12T23:07:32.528Z,26.93
2022-12-12T23:09:58.983Z,29.33
2022-12-12T23:12:25.474Z,28.87
2022-12-12T23:14:52.178Z,27.90
2022-12-12T23:17:18.541Z,25.40
2022-12-12T23:19:45.119Z,23.57
2022-12-12T23:22:11.503Z,24.63
2022-12-12T23:24:37.904Z,24.90
2022-12-12T23:27:04.444Z,27.27
2022-12-12T23:29:30.789Z,24.90
2022-12-12T23:31:58.771Z,23.37
2022-12-12T23:34:25.238Z,24.57
2022-12-12T23:36:54.081Z,23.47
2022-12-12T23:39:21.981Z,26.07
2022-12-12T23:41:48.692Z,25.80
2022-12-12T23:44:16.747Z,23.17
2022-12-12T23:46:43.642Z,24.60
2022-12-12T23:49:13.109Z,22.73
2022-12-12T23:51:53.191Z,22.73
2022-12-12T23:54:24.528Z,24.73
2022-12-12T23:56:51.449Z,25.17
2022-12-12T23:59:19.177Z,26.53
